Time;durP1;ratioP1;P1;durP2;ratioP2;P2;SDS_P1;SDS_P2;PMS_P1;PMS_P2;Temp;Humidity;BMP_temperature;BMP_pressure;BME280_temperature;BME280_humidity;BME280_pressure;Samples;Min_cycle;Max_cycle;Signal;HPM_P1;HPM_P2
2021/04/14 00:00:07;;;;;;;19.12;15.40;;;;;;;9.14;86.03;99287.55;1674086;85;21400;-63
2021/04/14 00:02:35;;;;;;;19.90;15.78;;;;;;;9.16;86.13;99290.94;1680872;85;21178;-63
2021/04/14 00:05:07;;;;;;;19.37;15.78;;;;;;;9.18;86.07;99295.62;1680912;85;21162;-63
2021/04/14 00:07:38;;;;;;;15.75;14.05;;;;;;;9.19;86.10;99299.42;1651930;86;21224;-63
2021/04/14 00:10:09;;;;;;;19.37;14.53;;;;;;;9.20;86.01;99293.78;1681175;85;21190;-63
2021/04/14 00:12:38;;;;;;;19.30;17.40;;;;;;;9.22;85.95;99303.20;1674063;85;21808;-63
2021/04/14 00:15:11;;;;;;;18.95;16.85;;;;;;;9.15;85.85;99294.43;1680787;85;21594;-63
2021/04/14 00:17:38;;;;;;;17.12;13.83;;;;;;;9.06;86.09;99293.02;1658710;85;21507;-63
2021/04/14 00:20:09;;;;;;;15.20;12.33;;;;;;;9.00;86.00;99298.43;1655514;86;21155;-64
2021/04/14 00:22:38;;;;;;;15.83;11.35;;;;;;;8.98;85.62;99289.89;1655517;85;21086;-63
2021/04/14 00:25:12;;;;;;;18.12;12.78;;;;;;;8.96;85.32;99292.54;1655474;86;21503;-63
2021/04/14 00:27:40;;;;;;;13.95;12.20;;;;;;;8.91;85.14;99289.27;1655594;86;21114;-63
2021/04/14 00:30:11;;;;;;;15.53;12.37;;;;;;;8.87;84.93;99281.66;1655476;86;21110;-63
2021/04/14 00:32:39;;;;;;;11.95;10.03;;;;;;;8.82;84.81;99279.22;1655463;86;21526;-63
2021/04/14 00:35:08;;;;;;;14.28;11.18;;;;;;;8.79;84.59;99278.03;1655583;86;21628;-63
2021/04/14 00:37:36;;;;;;;12.68;10.95;;;;;;;8.79;84.22;99275.92;1655412;86;22380;-63
2021/04/14 00:40:12;;;;;;;17.70;11.90;;;;;;;8.75;84.01;99272.59;1655402;86;21164;-63
2021/04/14 00:42:41;;;;;;;11.68;10.43;;;;;;;8.70;83.87;99275.80;1655459;86;21093;-63
2021/04/14 00:45:11;;;;;;;13.35;10.13;;;;;;;8.67;83.69;99273.77;1655506;86;21526;-63
2021/04/14 00:47:38;;;;;;;14.25;10.38;;;;;;;8.65;83.57;99266.04;1655510;86;21110;-63
2021/04/14 00:50:10;;;;;;;13.10;10.50;;;;;;;8.63;83.30;99272.58;1655497;86;21225;-63
2021/04/14 00:52:37;;;;;;;12.63;10.45;;;;;;;8.62;83.32;99266.15;1655440;86;21128;-63
2021/04/14 00:55:10;;;;;;;16.00;10.40;;;;;;;8.63;83.20;99260.06;1655471;86;21561;-63
2021/04/14 00:57:39;;;;;;;13.35;11.25;;;;;;;8.63;82.87;99267.39;1655508;86;21086;-63
2021/04/14 01:00:31;;;;;;;16.77;10.48;;;;;;;8.59;82.72;99260.63;1655484;86;21190;-63
2021/04/14 01:02:58;;;;;;;11.03;9.13;;;;;;;8.55;82.55;99255.63;1655449;86;21389;-63
2021/04/14 01:05:29;;;;;;;12.55;10.00;;;;;;;8.51;82.50;99263.12;1655467;86;22002;-64
2021/04/14 01:07:57;;;;;;;12.68;10.30;;;;;;;8.48;82.50;99258.88;1655480;85;21170;-62
2021/04/14 01:10:26;;;;;;;14.65;10.95;;;;;;;8.48;82.41;99252.86;1655427;86;21197;-61
2021/04/14 01:12:55;;;;;;;12.03;9.95;;;;;;;8.50;82.21;99248.02;1655482;86;21169;-63
2021/04/14 01:15:31;;;;;;;11.75;10.48;;;;;;;8.52;81.92;99250.11;1655489;86;22369;-64
2021/04/14 01:17:59;;;;;;;13.35;9.68;;;;;;;8.53;81.81;99244.47;1670307;85;21546;-63
2021/04/14 01:20:27;;;;;;;11.78;9.70;;;;;;;8.54;81.76;99240.98;1674528;85;21594;-64
2021/04/14 01:22:57;;;;;;;15.68;10.68;;;;;;;8.55;81.77;99233.59;1674554;84;21590;-64
2021/04/14 01:25:29;;;;;;;15.88;10.15;;;;;;;8.58;81.52;99234.78;1674546;85;21590;-64
2021/04/14 01:27:57;;;;;;;14.40;10.60;;;;;;;8.58;81.17;99242.11;1659302;86;21376;-63
2021/04/14 01:30:27;;;;;;;14.03;10.20;;;;;;;8.54;81.06;99239.23;1673933;85;21160;-62
2021/04/14 01:32:55;;;;;;;11.45;9.95;;;;;;;8.53;80.98;99236.24;1674543;85;21143;-63
2021/04/14 01:35:26;;;;;;;14.75;9.63;;;;;;;8.53;80.75;99234.10;1674498;85;21217;-63
2021/04/14 01:37:54;;;;;;;12.47;10.03;;;;;;;8.48;80.74;99230.38;1645284;87;21238;-62
2021/04/14 01:40:23;;;;;;;12.95;9.45;;;;;;;8.44;80.74;99232.67;1673997;85;23484;-62
2021/04/14 01:42:52;;;;;;;13.95;11.15;;;;;;;8.39;80.80;99222.95;1674453;85;21107;-62
2021/04/14 01:45:24;;;;;;;13.03;9.58;;;;;;;8.33;80.81;99221.88;1674596;85;21522;-62
2021/04/14 01:47:52;;;;;;;12.53;9.77;;;;;;;8.29;80.96;99227.58;1659259;86;21071;-63
2021/04/14 01:50:19;;;;;;;10.63;9.50;;;;;;;8.26;81.09;99222.50;1674009;85;22273;-62
2021/04/14 01:52:47;;;;;;;13.80;10.00;;;;;;;8.26;81.30;99221.66;1674574;85;21603;-63
2021/04/14 01:55:15;;;;;;;13.83;10.80;;;;;;;8.28;81.30;99220.70;1674396;85;21158;-62
2021/04/14 01:57:45;;;;;;;13.15;10.82;;;;;;;8.30;81.11;99217.61;1658966;86;21508;-62
2021/04/14 02:00:19;;;;;;;11.85;9.88;;;;;;;8.32;81.17;99211.53;1673980;85;21528;-62
2021/04/14 02:02:48;;;;;;;11.18;9.15;;;;;;;8.34;81.12;99208.02;1674649;85;21491;-62
2021/04/14 02:05:20;;;;;;;11.65;10.08;;;;;;;8.34;80.88;99209.31;1674639;85;21233;-63
2021/04/14 02:07:47;;;;;;;11.40;10.20;;;;;;;8.31;80.82;99205.50;1659148;86;21134;-62
2021/04/14 02:10:15;;;;;;;11.65;10.40;;;;;;;8.26;80.92;99195.30;1674189;85;21627;-63
2021/04/14 02:12:43;;;;;;;13.10;10.53;;;;;;;8.23;80.95;99188.92;1674564;85;22111;-62
2021/04/14 02:15:18;;;;;;;14.68;9.60;;;;;;;8.24;80.83;99191.91;1674634;85;21096;-62
2021/04/14 02:17:47;;;;;;;10.95;9.58;;;;;;;8.25;80.76;99189.72;1673219;85;21559;-63
2021/04/14 02:20:16;;;;;;;13.98;9.55;;;;;;;8.26;80.67;99184.93;1672367;85;21142;-62
2021/04/14 02:22:44;;;;;;;12.00;9.88;;;;;;;8.24;80.64;99188.47;1672414;85;21144;-63
2021/04/14 02:25:14;;;;;;;17.85;11.38;;;;;;;8.23;80.59;99186.33;1672441;85;21531;-63
2021/04/14 02:27:42;;;;;;;15.72;11.00;;;;;;;8.25;80.62;99194.90;1672512;85;21507;-62
2021/04/14 02:30:18;;;;;;;13.70;10.32;;;;;;;8.26;80.50;99189.27;1672423;84;21523;-62
2021/04/14 02:32:45;;;;;;;16.82;9.75;;;;;;;8.28;80.36;99187.47;1671828;85;21173;-62
2021/04/14 02:35:13;;;;;;;14.58;10.40;;;;;;;8.28;80.47;99190.06;1672408;84;21198;-63
2021/04/14 02:37:42;;;;;;;10.20;8.98;;;;;;;8.21;80.47;99192.02;1672299;85;21110;-63
2021/04/14 02:40:13;;;;;;;13.80;10.48;;;;;;;8.13;80.62;99194.51;1672440;85;21086;-63
2021/04/14 02:42:41;;;;;;;13.70;10.53;;;;;;;8.07;80.96;99194.27;1672401;85;21219;-63
2021/04/14 02:45:11;;;;;;;13.65;10.25;;;;;;;8.07;80.95;99190.38;1672411;85;21583;-63
2021/04/14 02:47:38;;;;;;;13.62;9.43;;;;;;;8.07;80.82;99189.09;1672417;85;21507;-63
2021/04/14 02:50:08;;;;;;;12.50;10.13;;;;;;;8.07;80.52;99192.97;1672414;85;21619;-63
2021/04/14 02:52:36;;;;;;;13.05;10.15;;;;;;;8.07;80.44;99183.91;1672506;85;21135;-62
2021/04/14 02:55:06;;;;;;;14.93;10.32;;;;;;;8.09;80.32;99184.70;1672387;85;22368;-62
2021/04/14 02:57:33;;;;;;;12.10;10.48;;;;;;;8.13;80.14;99182.85;1672390;85;21677;-62
2021/04/14 03:00:01;;;;;;;12.25;10.45;;;;;;;8.15;80.01;99181.05;1672372;85;21071;-62
2021/04/14 03:02:31;;;;;;;15.45;9.95;;;;;;;8.14;79.94;99186.69;1672440;85;21123;-62
2021/04/14 03:04:59;;;;;;;13.43;9.65;;;;;;;8.14;79.86;99184.09;1672412;85;21655;-62
2021/04/14 03:07:27;;;;;;;12.70;11.22;;;;;;;8.14;79.56;99180.20;1672427;85;21565;-62
2021/04/14 03:09:55;;;;;;;11.90;10.23;;;;;;;8.14;79.53;99175.03;1672338;85;21174;-62
2021/04/14 03:12:23;;;;;;;14.63;11.35;;;;;;;8.13;79.36;99175.92;1672403;85;21185;-62
2021/04/14 03:14:51;;;;;;;12.93;10.98;;;;;;;8.11;79.39;99179.02;1672398;85;21114;-62
2021/04/14 03:17:19;;;;;;;11.90;10.60;;;;;;;8.07;79.30;99174.00;1672163;85;21507;-62
2021/04/14 03:19:47;;;;;;;14.15;11.80;;;;;;;8.03;79.24;99172.41;1672432;85;21369;-62
2021/04/14 03:22:15;;;;;;;13.85;10.23;;;;;;;8.00;79.35;99180.28;1672361;85;21598;-62
2021/04/14 03:24:43;;;;;;;14.23;11.00;;;;;;;7.99;79.36;99183.35;1672368;85;21127;-62
2021/04/14 03:27:10;;;;;;;12.68;11.08;;;;;;;7.97;79.50;99189.03;1672460;85;21507;-63
2021/04/14 03:29:38;;;;;;;13.62;11.40;;;;;;;7.97;79.49;99198.55;1672477;85;21590;-62
2021/04/14 03:32:07;;;;;;;13.25;11.00;;;;;;;7.99;79.44;99201.93;1672395;85;21613;-62
2021/04/14 03:34:35;;;;;;;13.68;11.90;;;;;;;8.00;79.36;99211.36;1672399;85;21632;-62
2021/04/14 03:37:03;;;;;;;13.28;10.90;;;;;;;7.97;79.33;99213.64;1672279;85;21075;-63
2021/04/14 03:39:31;;;;;;;13.85;10.50;;;;;;;7.95;79.45;99206.37;1672411;85;21962;-63
2021/04/14 03:41:58;;;;;;;12.70;10.98;;;;;;;7.94;79.62;99208.56;1672375;85;21523;-64
2021/04/14 03:44:34;;;;;;;14.63;10.68;;;;;;;7.94;79.70;99202.09;1672381;85;21151;-63
2021/04/14 03:46:57;;;;;;;15.50;12.40;;;;;;;7.94;79.79;99193.87;1671563;85;21146;-64
2021/04/14 03:49:24;;;;;;;14.90;12.25;;;;;;;7.93;79.63;99197.80;1672335;85;21151;-63
2021/04/14 03:51:52;;;;;;;13.43;11.97;;;;;;;7.93;79.56;99202.53;1672353;85;21527;-63
2021/04/14 03:54:22;;;;;;;14.63;13.22;;;;;;;7.95;79.46;99200.74;1672354;85;21107;-63
2021/04/14 03:56:50;;;;;;;12.68;11.18;;;;;;;7.98;79.25;99193.77;1672352;85;22351;-63
2021/04/14 03:59:18;;;;;;;15.43;13.13;;;;;;;8.02;79.12;99200.50;1672307;84;21713;-63
2021/04/14 04:01:45;;;;;;;17.20;13.30;;;;;;;8.04;79.13;99202.14;1672413;85;21601;-63
2021/04/14 04:04:13;;;;;;;14.83;12.88;;;;;;;8.08;79.02;99195.11;1672340;85;21665;-63
2021/04/14 04:06:41;;;;;;;16.05;13.05;;;;;;;8.10;78.96;99206.27;1672355;84;21075;-63
2021/04/14 04:09:10;;;;;;;16.75;13.75;;;;;;;8.13;78.97;99200.53;1672336;85;21383;-63
2021/04/14 04:11:37;;;;;;;17.90;13.30;;;;;;;8.15;78.73;99201.33;1672229;84;21611;-63
2021/04/14 04:14:05;;;;;;;14.45;12.33;;;;;;;8.15;78.55;99200.03;1672318;85;21586;-63
2021/04/14 04:16:33;;;;;;;17.50;13.60;;;;;;;8.16;78.62;99206.06;1672265;85;21527;-63
2021/04/14 04:19:02;;;;;;;15.38;13.85;;;;;;;8.15;78.73;99202.63;1658629;85;21085;-62
2021/04/14 04:21:30;;;;;;;17.23;14.47;;;;;;;8.16;78.84;99203.02;1655470;86;21159;-62
2021/04/14 04:23:59;;;;;;;16.20;13.58;;;;;;;8.20;78.82;99209.75;1655441;85;21094;-62
2021/04/14 04:26:27;;;;;;;16.10;14.00;;;;;;;8.22;78.87;99211.00;1655419;86;21122;-63
2021/04/14 04:28:55;;;;;;;22.05;16.12;;;;;;;8.23;78.83;99213.98;1655439;86;21609;-63
2021/04/14 04:31:22;;;;;;;17.10;13.75;;;;;;;8.25;78.81;99217.38;1655579;86;21502;-63
2021/04/14 04:33:50;;;;;;;21.82;16.77;;;;;;;8.27;78.84;99221.60;1655456;86;22467;-63
2021/04/14 04:36:17;;;;;;;16.57;14.33;;;;;;;8.29;78.96;99212.03;1655408;85;21174;-63
2021/04/14 04:38:45;;;;;;;17.45;14.43;;;;;;;8.33;79.10;99212.80;1655417;86;21601;-63
2021/04/14 04:41:12;;;;;;;17.73;15.58;;;;;;;8.38;78.80;99218.67;1655441;86;21077;-63
2021/04/14 04:43:42;;;;;;;15.58;13.80;;;;;;;8.41;78.61;99219.83;1655482;86;21093;-63
2021/04/14 04:46:10;;;;;;;16.67;14.35;;;;;;;8.42;78.36;99220.22;1655436;86;21231;-63
2021/04/14 04:48:37;;;;;;;22.55;16.48;;;;;;;8.44;78.40;99226.20;1655409;86;21189;-63
2021/04/14 04:51:06;;;;;;;17.42;14.95;;;;;;;8.47;78.34;99223.95;1655417;86;21170;-63
2021/04/14 04:53:34;;;;;;;21.23;15.00;;;;;;;8.47;78.53;99219.61;1631167;86;21658;-63
2021/04/14 04:56:01;;;;;;;18.65;15.95;;;;;;;8.50;78.60;99218.20;1655430;86;21509;-64
2021/04/14 04:58:31;;;;;;;18.20;14.87;;;;;;;8.52;78.43;99216.41;1655393;86;22458;-63
2021/04/14 05:00:59;;;;;;;16.30;14.65;;;;;;;8.55;78.33;99223.23;1655252;86;21232;-63
2021/04/14 05:03:32;;;;;;;16.97;14.60;;;;;;;8.58;78.16;99208.86;1654769;86;21133;-64
2021/04/14 05:05:58;;;;;;;17.75;13.98;;;;;;;8.61;78.09;99217.34;1654948;86;21110;-65
2021/04/14 05:08:26;;;;;;;16.80;14.85;;;;;;;8.63;78.08;99214.70;1655365;86;21133;-63
2021/04/14 05:10:54;;;;;;;17.92;14.95;;;;;;;8.66;77.89;99217.63;1655399;86;22391;-63
2021/04/14 05:13:22;;;;;;;17.17;14.03;;;;;;;8.69;77.92;99223.55;1655385;86;21523;-63
2021/04/14 05:16:12;;;;;;;22.80;16.80;;;;;;;8.73;77.81;99229.02;1653883;85;21241;-64
2021/04/14 05:18:40;;;;;;;16.93;15.13;;;;;;;8.78;77.69;99225.81;1701121;84;21073;-64
2021/04/14 05:21:08;;;;;;;18.62;16.67;;;;;;;8.77;77.50;99226.70;1680927;85;21518;-63
2021/04/14 05:23:38;;;;;;;16.45;14.73;;;;;;;8.76;77.63;99226.31;1680841;85;21718;-63
2021/04/14 05:26:08;;;;;;;18.05;15.30;;;;;;;8.74;77.64;99219.49;1713396;83;21135;-62
2021/04/14 05:28:37;;;;;;;16.85;15.13;;;;;;;8.72;77.82;99223.89;1685443;84;21256;-63
2021/04/14 05:31:05;;;;;;;16.30;14.70;;;;;;;8.73;77.87;99220.39;1701069;84;21587;-63
2021/04/14 05:33:33;;;;;;;17.75;15.75;;;;;;;8.69;77.60;99217.06;1700980;84;21159;-63
2021/04/14 05:36:02;;;;;;;21.60;17.50;;;;;;;8.64;77.78;99221.58;1700942;83;21504;-63
2021/04/14 05:38:30;;;;;;;21.73;17.70;;;;;;;8.61;77.74;99220.38;1700966;83;21116;-63
2021/04/14 05:40:59;;;;;;;20.43;16.25;;;;;;;8.55;77.81;99224.08;1701099;84;21069;-64
2021/04/14 05:43:31;;;;;;;22.90;18.52;;;;;;;8.53;77.90;99220.69;1701185;84;21112;-63
2021/04/14 05:46:01;;;;;;;;;;;;;;;8.52;78.30;99228.52;1703692;84;21506;-63
2021/04/14 05:48:28;;;;;;;19.17;16.80;;;;;;;8.53;78.53;99231.52;1701138;84;21371;-62
2021/04/14 05:51:04;;;;;;;22.73;17.10;;;;;;;8.52;78.69;99231.11;1701048;83;21140;-63
2021/04/14 05:53:32;;;;;;;22.17;17.32;;;;;;;8.53;78.75;99221.14;1701102;84;21118;-63
2021/04/14 05:56:00;;;;;;;21.25;16.62;;;;;;;8.54;78.62;99225.42;1701057;83;21137;-64
2021/04/14 05:58:28;;;;;;;20.70;17.05;;;;;;;8.53;78.53;99227.17;1700868;84;21077;-64
2021/04/14 06:00:56;;;;;;;19.62;16.62;;;;;;;8.52;78.60;99230.66;1705430;82;21371;-62
2021/04/14 06:03:26;;;;;;;20.85;16.10;;;;;;;8.53;78.75;99237.54;1700487;84;21188;-63
2021/04/14 06:05:56;;;;;;;21.12;17.70;;;;;;;8.53;78.61;99243.17;1701034;84;21131;-63
2021/04/14 06:08:28;;;;;;;21.27;17.67;;;;;;;8.49;78.72;99234.66;1701082;83;21588;-63
2021/04/14 06:10:59;;;;;;;20.05;15.90;;;;;;;8.46;78.98;99235.22;1700788;84;21085;-63
2021/04/14 06:13:29;;;;;;;17.82;15.40;;;;;;;8.48;79.28;99239.89;1701083;84;21959;-63
2021/04/14 06:15:57;;;;;;;19.55;16.70;;;;;;;8.52;79.36;99238.44;1700934;83;21154;-64
2021/04/14 06:18:27;;;;;;;19.10;17.10;;;;;;;8.52;79.22;99237.14;1723712;83;21542;-62
2021/04/14 06:20:56;;;;;;;18.37;16.20;;;;;;;8.54;79.41;99231.91;1727925;83;21155;-62
2021/04/14 06:23:24;;;;;;;20.85;17.87;;;;;;;8.61;79.37;99235.48;1727907;82;21093;-62
2021/04/14 06:28:36;;;;;;;;;;;;;;;8.78;79.20;99241.81;1707479;83;21167;-62
2021/04/14 06:31:05;;;;;;;19.40;16.67;;;;;;;8.84;79.05;99237.22;1727860;82;20222;-62
2021/04/14 06:33:37;;;;;;;21.25;17.98;;;;;;;8.88;78.93;99241.84;1727741;82;21096;-63
2021/04/14 06:36:07;;;;;;;21.00;16.80;;;;;;;8.90;79.00;99243.48;1727871;83;21100;-62
2021/04/14 06:38:40;;;;;;;24.63;19.52;;;;;;;8.99;78.86;99241.00;1727560;83;22302;-62
2021/04/14 06:44:30;;;;;;;20.10;15.68;;;;;;;9.19;78.56;99243.62;1727793;82;21133;-61
2021/04/14 06:46:58;;;;;;;20.20;17.42;;;;;;;9.31;77.91;99235.83;1728249;82;21554;-62
2021/04/14 06:49:47;;;;;;;18.65;16.57;;;;;;;9.42;78.25;99233.64;1727868;83;21097;-62
2021/04/14 06:52:28;;;;;;;23.52;18.20;;;;;;;9.55;77.33;99234.84;1723755;83;21136;-63
2021/04/14 06:55:07;;;;;;;21.15;18.57;;;;;;;9.63;77.19;99226.72;1705823;83;21144;-62
2021/04/14 06:57:39;;;;;;;22.27;15.98;;;;;;;9.75;77.17;99231.42;1727853;82;21105;-61
2021/04/14 07:00:24;;;;;;;18.98;14.33;;;;;;;9.90;76.84;99228.63;1727557;82;21033;-62
2021/04/14 07:03:06;;;;;;;24.50;19.62;;;;;;;9.98;76.31;99226.11;1727156;83;21054;-61
2021/04/14 07:05:43;;;;;;;20.52;16.97;;;;;;;10.09;76.44;99221.73;1725038;83;21165;-61
2021/04/14 07:08:31;;;;;;;19.45;15.93;;;;;;;10.28;75.69;99215.30;1727162;83;21061;-63
2021/04/14 07:11:00;;;;;;;33.13;19.37;;;;;;;10.42;75.50;99212.08;1727887;83;21196;-62
2021/04/14 07:13:31;;;;;;;20.37;15.85;;;;;;;10.69;75.39;99210.84;1727825;83;21055;-62
2021/04/14 07:16:42;;;;;;;24.82;15.25;;;;;;;10.95;74.22;99211.78;1727997;83;21454;-62
2021/04/14 07:19:31;;;;;;;17.85;15.05;;;;;;;11.18;73.46;99204.19;1727787;82;21377;-61
2021/04/14 07:22:13;;;;;;;22.25;15.20;;;;;;;11.52;72.59;99211.65;1727933;82;21517;-62
2021/04/14 07:24:47;;;;;;;27.82;16.23;;;;;;;11.84;70.81;99213.97;1727903;83;21038;-62
2021/04/14 07:27:54;;;;;;;18.75;14.78;;;;;;;12.07;70.39;99210.58;1727807;82;21152;-62
2021/04/14 07:30:27;;;;;;;17.80;14.07;;;;;;;12.28;69.96;99217.74;1688861;83;21144;-63
2021/04/14 07:33:31;;;;;;;21.62;14.45;;;;;;;12.51;68.84;99211.78;1727835;82;21222;-62
2021/04/14 07:36:07;;;;;;;24.52;15.13;;;;;;;12.63;68.24;99214.56;1727818;83;21573;-62
2021/04/14 07:38:52;;;;;;;26.37;16.50;;;;;;;12.83;67.25;99203.50;1873449;76;22749;-62
2021/04/14 07:42:04;;;;;;;24.63;14.87;;;;;;;12.93;67.03;99206.00;1841491;77;21053;-62
2021/04/14 07:44:45;;;;;;;40.10;18.37;;;;;;;13.10;66.05;99201.52;1841487;77;21197;-62
2021/04/14 07:47:17;;;;;;;20.90;14.70;;;;;;;13.26;65.57;99204.59;1816564;78;21014;-61
2021/04/14 07:49:46;;;;;;;25.05;14.78;;;;;;;13.36;65.12;99205.78;1808530;78;21002;-62
2021/04/14 07:52:24;;;;;;;22.37;14.10;;;;;;;13.53;64.40;99204.34;1808385;79;21486;-62
2021/04/14 07:54:52;;;;;;;16.48;14.07;;;;;;;13.65;62.69;99198.39;1808442;78;21497;-62
2021/04/14 07:57:34;;;;;;;25.43;13.75;;;;;;;13.69;61.88;99210.36;1808425;78;21431;-62
2021/04/14 08:00:14;;;;;;;32.42;14.60;;;;;;;13.74;62.13;99214.02;1808517;78;21061;-62
2021/04/14 08:02:41;;;;;;;19.67;14.90;;;;;;;13.83;61.29;99208.23;1808385;79;21469;-62
2021/04/14 08:05:27;;;;;;;16.00;11.95;;;;;;;13.93;61.23;99199.40;1808388;79;21133;-61
2021/04/14 08:07:55;;;;;;;25.00;12.30;;;;;;;14.02;59.41;99213.22;1808225;78;21256;-62
2021/04/14 08:10:26;;;;;;;29.05;14.15;;;;;;;14.04;59.74;99213.97;1808387;78;21355;-62
2021/04/14 08:13:03;;;;;;;21.97;12.40;;;;;;;14.17;59.89;99212.32;1808584;79;21187;-63
2021/04/14 08:15:34;;;;;;;30.30;13.45;;;;;;;14.31;59.31;99208.86;1808422;78;21160;-61
2021/04/14 08:18:31;;;;;;;16.82;11.88;;;;;;;14.47;58.84;99207.86;1808447;79;21061;-61
2021/04/14 08:21:18;;;;;;;22.15;11.25;;;;;;;14.54;58.01;99210.95;1808417;79;21121;-61
2021/04/14 08:23:59;;;;;;;22.05;11.53;;;;;;;14.51;57.18;99209.83;1783818;79;21117;-62
2021/04/14 08:26:28;;;;;;;20.23;14.80;;;;;;;14.41;57.14;99204.30;1808409;79;21569;-62
2021/04/14 08:29:12;;;;;;;29.82;12.50;;;;;;;14.28;57.08;99199.89;1808367;78;21164;-62
2021/04/14 08:34:31;;;;;;;12.80;9.68;;;;;;;14.18;54.43;99199.63;1873530;76;22792;-63
2021/04/14 08:37:10;;;;;;;11.70;9.50;;;;;;;14.09;55.07;99201.47;1825192;78;21097;-61
2021/04/14 08:39:44;;;;;;;13.30;9.78;;;;;;;14.10;54.94;99201.84;1808404;79;21186;-62
2021/04/14 08:42:23;;;;;;;16.40;10.70;;;;;;;14.09;54.53;99194.92;1808314;78;21506;-62
2021/04/14 08:44:57;;;;;;;16.02;11.30;;;;;;;14.01;54.97;99191.45;1808016;78;21045;-61
2021/04/14 08:47:28;;;;;;;32.40;12.70;;;;;;;13.98;55.23;99190.36;1759582;79;21068;-62
2021/04/14 08:50:04;;;;;;;15.72;10.13;;;;;;;13.91;55.95;99188.19;1808374;79;21090;-61
2021/04/14 08:52:41;;;;;;;12.03;7.58;;;;;;;13.90;56.34;99184.73;1804863;79;21191;-62
2021/04/14 08:55:10;;;;;;;11.25;8.28;;;;;;;13.92;50.78;99185.48;1808240;78;21076;-61
2021/04/14 08:57:39;;;;;;;8.53;7.60;;;;;;;13.85;50.67;99187.23;1808272;79;21103;-64
2021/04/14 09:00:10;;;;;;;15.48;9.05;;;;;;;13.83;51.04;99193.86;1808373;78;21180;-61
2021/04/14 09:02:39;;;;;;;14.87;10.43;;;;;;;13.74;51.48;99188.72;1807791;78;21617;-62
2021/04/14 09:05:12;;;;;;;25.30;10.20;;;;;;;13.67;51.21;99186.08;1808346;79;22250;-62
2021/04/14 09:07:39;;;;;;;21.70;9.23;;;;;;;13.64;52.27;99182.80;1808319;79;21160;-62
2021/04/14 09:10:10;;;;;;;11.48;9.45;;;;;;;13.68;53.19;99177.31;1808313;78;21101;-62
2021/04/14 09:12:48;;;;;;;19.17;10.37;;;;;;;13.74;53.38;99173.51;1808572;79;21156;-62
2021/04/14 09:15:17;;;;;;;9.48;7.47;;;;;;;13.81;54.30;99176.11;1808321;79;21438;-62
2021/04/14 09:18:00;;;;;;;16.57;9.03;;;;;;;13.89;54.23;99169.98;1808405;78;22292;-63
2021/04/14 09:20:37;;;;;;;13.05;9.53;;;;;;;13.98;52.79;99162.06;1808292;79;21117;-61
2021/04/14 09:23:11;;;;;;;15.05;9.15;;;;;;;14.06;52.79;99159.34;1808421;78;21062;-62
2021/04/14 09:25:51;;;;;;;19.17;9.35;;;;;;;14.10;52.97;99152.16;1808387;79;21088;-63
2021/04/14 09:28:29;;;;;;;22.98;11.45;;;;;;;14.12;52.83;99148.98;1808380;78;21191;-62
2021/04/14 09:31:13;;;;;;;13.95;10.00;;;;;;;14.13;53.24;99153.28;1807826;79;22346;-63
2021/04/14 09:33:47;;;;;;;12.00;8.15;;;;;;;14.24;52.71;99152.61;1798457;78;21060;-62
2021/04/14 09:36:31;;;;;;;16.90;9.18;;;;;;;14.30;51.42;99147.85;1814165;77;21127;-62
2021/04/14 09:39:17;;;;;;;11.88;8.25;;;;;;;14.34;50.99;99138.88;1814098;79;21497;-62
2021/04/14 09:41:46;;;;;;;14.33;9.88;;;;;;;14.47;49.90;99143.75;1808998;79;21470;-62
2021/04/14 09:44:31;;;;;;;17.45;8.90;;;;;;;14.57;48.57;99141.41;1813867;78;21196;-60
2021/04/14 09:47:30;;;;;;;14.53;8.30;;;;;;;14.64;47.56;99136.61;1813372;79;21494;-61
2021/04/14 09:50:03;;;;;;;9.40;8.50;;;;;;;14.66;47.90;99132.13;1813615;79;21116;-60
2021/04/14 09:53:08;;;;;;;16.37;9.23;;;;;;;14.70;47.87;99137.07;1811724;78;21120;-62
2021/04/14 09:55:47;;;;;;;22.62;11.73;;;;;;;14.65;48.66;99129.97;1812664;79;21092;-62
2021/04/14 09:58:29;;;;;;;13.70;9.18;;;;;;;14.59;49.50;99132.97;1813203;79;21444;-62
2021/04/14 10:01:02;;;;;;;18.17;10.43;;;;;;;14.61;49.87;99136.33;1784396;79;21163;-61
2021/04/14 10:03:34;;;;;;;12.78;8.30;;;;;;;14.65;49.60;99123.89;1808728;79;21587;-62
2021/04/14 10:06:10;;;;;;;17.90;10.05;;;;;;;14.74;50.34;99130.70;1813661;78;21073;-67
2021/04/14 10:08:41;;;;;;;19.25;9.43;;;;;;;14.86;49.14;99126.45;1813589;79;21564;-65
2021/04/14 10:11:12;;;;;;;20.32;9.53;;;;;;;15.00;48.93;99119.84;1813531;79;21184;-61
2021/04/14 10:13:40;;;;;;;12.58;9.70;;;;;;;15.21;48.43;99118.91;1785033;79;21128;-62
2021/04/14 10:16:09;;;;;;;13.18;8.85;;;;;;;15.36;47.36;99131.02;1813406;78;21026;-61
2021/04/14 10:18:41;;;;;;;13.03;8.23;;;;;;;15.47;46.67;99124.58;1724607;79;21172;-61
2021/04/14 10:21:18;;;;;;;15.85;9.45;;;;;;;15.59;46.27;99119.00;1813487;79;21136;-61
2021/04/14 10:23:46;;;;;;;12.07;9.88;;;;;;;15.67;46.18;99118.02;1813582;79;22324;-61
2021/04/14 10:26:14;;;;;;;15.35;9.30;;;;;;;15.74;46.44;99107.97;1784520;79;21219;-63
2021/04/14 10:28:43;;;;;;;14.58;10.08;;;;;;;15.83;46.27;99108.64;1810136;78;21120;-64
2021/04/14 10:31:20;;;;;;;15.93;9.63;;;;;;;15.96;45.89;99097.69;1812561;78;21155;-62
2021/04/14 10:33:48;;;;;;;10.25;9.18;;;;;;;16.12;45.14;99107.47;1810445;77;21141;-61
2021/04/14 10:36:31;;;;;;;17.32;9.78;;;;;;;16.27;43.65;99101.61;1807718;78;21383;-62
2021/04/14 10:39:18;;;;;;;13.32;9.53;;;;;;;16.36;43.80;99100.98;1804073;78;21647;-62
2021/04/14 10:41:47;;;;;;;19.70;12.20;;;;;;;16.63;43.08;99088.11;1805948;79;21465;-62
2021/04/14 10:44:25;;;;;;;31.07;14.23;;;;;;;16.63;43.08;99088.11;1807824;78;21073;-61
2021/04/14 10:47:25;;;;;;;17.42;9.93;;;;;;;16.62;43.09;99095.16;1807854;79;21104;-61
2021/04/14 10:50:07;;;;;;;13.93;11.08;;;;;;;16.61;43.00;99094.79;1807800;78;21197;-62
2021/04/14 10:52:34;;;;;;;16.65;9.75;;;;;;;16.71;42.81;99095.01;1807822;79;21473;-62
2021/04/14 10:55:16;;;;;;;16.27;9.55;;;;;;;16.71;42.81;99095.01;1807743;78;21039;-61
2021/04/14 10:57:55;;;;;;;11.28;8.50;;;;;;;16.76;42.18;99088.95;1807926;78;21031;-62
2021/04/14 11:00:30;;;;;;;13.75;8.63;;;;;;;16.96;40.83;99080.93;1807845;78;21046;-62
2021/04/14 11:03:08;;;;;;;12.58;8.53;;;;;;;17.04;40.73;99087.75;1807816;79;22340;-61
2021/04/14 11:05:39;;;;;;;21.95;10.80;;;;;;;17.07;40.37;99079.65;1807608;79;21525;-62
2021/04/14 11:08:08;;;;;;;16.85;12.60;;;;;;;17.07;40.37;99079.65;1807656;78;21132;-62
2021/04/14 11:10:38;;;;;;;11.75;8.63;;;;;;;17.06;40.05;99080.13;1807715;79;20930;-61
2021/04/14 11:13:08;;;;;;;11.63;8.80;;;;;;;17.01;39.59;99084.88;1807692;79;21477;-61
2021/04/14 11:15:42;;;;;;;13.55;8.88;;;;;;;17.01;39.98;99078.78;1804078;79;22102;-63
2021/04/14 11:18:13;;;;;;;10.32;7.17;;;;;;;17.03;38.86;99076.88;1805215;78;21530;-62
2021/04/14 11:20:53;;;;;;;12.70;8.65;;;;;;;17.03;38.86;99076.88;1807548;78;21042;-62
2021/04/14 11:23:27;;;;;;;10.58;7.85;;;;;;;17.02;38.88;99074.73;1807456;78;21124;-62
2021/04/14 11:26:18;;;;;;;13.35;7.40;;;;;;;17.01;39.23;99079.62;1807695;78;21042;-60
2021/04/14 11:28:56;;;;;;;14.95;7.95;;;;;;;16.99;38.30;99071.01;1757574;81;21335;-61
2021/04/14 11:31:40;;;;;;;10.88;7.75;;;;;;;16.76;38.14;99067.47;1750454;82;21195;-62
2021/04/14 11:34:16;;;;;;;12.93;7.80;;;;;;;16.53;39.47;99067.80;1750270;80;21574;-62
2021/04/14 11:37:06;;;;;;;11.05;9.20;;;;;;;16.44;40.08;99063.19;1750298;80;21071;-63
2021/04/14 11:39:54;;;;;;;16.62;8.43;;;;;;;16.41;39.99;99063.41;1750413;81;21263;-63
2021/04/14 11:42:30;;;;;;;15.50;7.25;;;;;;;16.39;40.34;99056.59;1748597;82;21350;-62
2021/04/14 11:45:00;;;;;;;8.58;7.55;;;;;;;16.46;40.76;99055.21;1749290;80;21199;-62
2021/04/14 11:47:35;;;;;;;13.30;7.03;;;;;;;16.58;40.44;99046.47;1750394;80;21138;-62
2021/04/14 11:50:19;;;;;;;11.78;7.10;;;;;;;16.62;40.09;99047.05;1750497;82;21602;-62
2021/04/14 11:52:58;;;;;;;12.55;6.90;;;;;;;16.65;39.45;99053.43;1750450;82;21094;-63
2021/04/14 11:55:38;;;;;;;26.07;10.13;;;;;;;16.58;39.23;99048.25;1750434;81;22134;-63
2021/04/14 11:58:38;;;;;;;13.88;6.10;;;;;;;16.65;39.53;99044.24;1750319;80;21161;-63